createdAt,value
2018-02-22T00:00:24.965Z,16.90
2018-02-22T00:01:29.829Z,16.90
2018-02-22T00:02:34.544Z,16.90
2018-02-22T00:03:39.448Z,16.90
2018-02-22T00:04:44.138Z,16.90
2018-02-22T00:05:49.062Z,16.90
2018-02-22T00:06:53.939Z,16.90
2018-02-22T00:07:58.614Z,16.90
2018-02-22T00:09:03.536Z,16.90
2018-02-22T00:10:08.249Z,16.90
2018-02-22T00:11:13.198Z,16.90
2018-02-22T00:12:18.098Z,16.90
2018-02-22T00:13:22.895Z,16.90
2018-02-22T00:14:27.802Z,16.90
2018-02-22T00:15:32.527Z,16.90
2018-02-22T00:16:37.431Z,16.90
2018-02-22T00:17:42.278Z,16.90
2018-02-22T00:18:47.212Z,16.90
2018-02-22T00:19:52.036Z,16.90
2018-02-22T00:20:56.798Z,16.90
2018-02-22T00:22:02.448Z,16.90
2018-02-22T00:23:07.347Z,16.90
2018-02-22T00:24:12.201Z,16.90
2018-02-22T00:25:17.306Z,16.90
2018-02-22T00:26:22.051Z,16.90
2018-02-22T00:27:26.932Z,16.80
2018-02-22T00:28:31.838Z,16.90
2018-02-22T00:29:36.710Z,16.90
2018-02-22T00:30:41.623Z,16.90
2018-02-22T00:31:46.568Z,16.90
2018-02-22T00:32:51.275Z,16.90
2018-02-22T00:33:56.009Z,16.90
2018-02-22T00:35:00.738Z,16.90
2018-02-22T00:36:05.681Z,16.90
2018-02-22T00:37:10.433Z,16.90
2018-02-22T00:38:15.193Z,16.90
2018-02-22T00:39:19.955Z,16.90
2018-02-22T00:40:24.733Z,16.80
2018-02-22T00:41:29.462Z,16.90
2018-02-22T00:42:34.315Z,16.90
2018-02-22T00:43:39.287Z,16.90
2018-02-22T00:44:44.246Z,16.90
2018-02-22T00:45:48.964Z,16.90
2018-02-22T00:46:53.787Z,16.90
2018-02-22T00:47:58.720Z,16.90
2018-02-22T00:49:03.430Z,16.90
2018-02-22T00:50:08.449Z,16.90
2018-02-22T00:51:13.174Z,16.90
2018-02-22T00:52:18.087Z,16.90
2018-02-22T00:53:22.844Z,16.90
2018-02-22T00:54:27.909Z,16.90
2018-02-22T00:55:32.690Z,16.90
2018-02-22T00:56:37.615Z,16.80
2018-02-22T00:57:42.613Z,16.80
2018-02-22T00:58:47.632Z,16.90
2018-02-22T00:59:52.456Z,16.80
2018-02-22T01:00:57.328Z,16.80
2018-02-22T01:02:02.172Z,16.90
2018-02-22T01:03:07.106Z,16.80
2018-02-22T01:04:12.067Z,16.80
2018-02-22T01:05:16.809Z,16.80
2018-02-22T01:06:21.567Z,16.80
2018-02-22T01:07:26.330Z,16.90
2018-02-22T01:08:31.049Z,16.80
2018-02-22T01:09:35.795Z,16.90
2018-02-22T01:10:40.525Z,16.80
2018-02-22T01:11:45.348Z,16.80
2018-02-22T01:12:50.108Z,16.80
2018-02-22T01:13:55.028Z,16.80
2018-02-22T01:14:59.940Z,16.80
2018-02-22T01:16:04.685Z,16.80
2018-02-22T01:17:09.592Z,16.80
2018-02-22T01:18:14.338Z,16.80
2018-02-22T01:19:19.084Z,16.80
2018-02-22T01:20:23.816Z,16.80
2018-02-22T01:21:28.782Z,16.90
2018-02-22T01:22:33.561Z,16.80
2018-02-22T01:23:38.344Z,16.80
2018-02-22T01:24:43.341Z,16.80
2018-02-22T01:25:48.074Z,16.80
2018-02-22T01:26:52.750Z,16.80
2018-02-22T01:27:57.629Z,16.80
2018-02-22T01:29:02.421Z,16.80
2018-02-22T01:30:07.285Z,16.80
2018-02-22T01:31:12.020Z,16.80
2018-02-22T01:32:16.860Z,16.80
2018-02-22T01:33:21.624Z,16.80
2018-02-22T01:34:26.362Z,16.80
2018-02-22T01:35:31.274Z,16.80
2018-02-22T01:36:36.062Z,16.80
2018-02-22T01:37:40.911Z,16.80
2018-02-22T01:38:45.793Z,16.80
2018-02-22T01:39:50.712Z,16.80
2018-02-22T01:40:55.442Z,16.80
2018-02-22T01:42:00.353Z,16.80
2018-02-22T01:43:05.093Z,16.80
2018-02-22T01:44:09.985Z,16.80
2018-02-22T01:45:14.732Z,16.80
2018-02-22T01:46:19.628Z,16.80
2018-02-22T01:47:24.538Z,16.80
2018-02-22T01:48:29.336Z,16.80
2018-02-22T01:49:34.144Z,16.80
2018-02-22T01:50:38.877Z,16.80
2018-02-22T01:51:43.714Z,16.80
2018-02-22T01:52:48.593Z,16.80
2018-02-22T01:53:53.338Z,16.80
2018-02-22T01:54:58.035Z,16.80
2018-02-22T01:56:02.920Z,16.80
2018-02-22T01:57:07.793Z,16.80
2018-02-22T01:58:12.497Z,16.80
2018-02-22T01:59:17.223Z,16.80
2018-02-22T02:00:21.958Z,16.80
2018-02-22T02:01:26.697Z,16.80
2018-02-22T02:02:31.483Z,16.80
2018-02-22T02:03:36.344Z,16.80
2018-02-22T02:04:41.051Z,16.80
2018-02-22T02:05:45.758Z,16.80
2018-02-22T02:06:50.691Z,16.70
2018-02-22T02:07:55.627Z,16.80
2018-02-22T02:09:00.452Z,16.80
2018-02-22T02:10:05.204Z,16.70
2018-02-22T02:11:10.118Z,16.80
2018-02-22T02:12:14.872Z,16.80
2018-02-22T02:13:19.859Z,16.70
2018-02-22T02:14:24.782Z,16.70
2018-02-22T02:15:29.753Z,16.70
2018-02-22T02:16:34.577Z,16.70
2018-02-22T02:17:39.529Z,16.70
2018-02-22T02:18:44.423Z,16.80
2018-02-22T02:19:49.256Z,16.70
2018-02-22T02:20:53.987Z,16.70
2018-02-22T02:21:58.744Z,16.70
2018-02-22T02:23:03.762Z,16.70
2018-02-22T02:24:08.664Z,16.70
2018-02-22T02:25:13.445Z,16.70
2018-02-22T02:26:18.404Z,16.70
2018-02-22T02:27:23.404Z,16.70
2018-02-22T02:28:28.160Z,16.70
2018-02-22T02:29:32.969Z,16.70
2018-02-22T02:30:37.907Z,16.70
2018-02-22T02:31:42.634Z,16.70
2018-02-22T02:32:47.382Z,16.80
2018-02-22T02:33:52.176Z,16.70
2018-02-22T02:34:57.156Z,16.70
2018-02-22T02:36:01.941Z,16.70
2018-02-22T02:37:06.708Z,16.80
2018-02-22T02:38:11.470Z,16.70
2018-02-22T02:39:16.256Z,16.70
2018-02-22T02:40:21.168Z,16.70
2018-02-22T02:41:26.072Z,16.70
2018-02-22T02:42:31.055Z,16.70
2018-02-22T02:43:36.016Z,16.70
2018-02-22T02:44:40.863Z,16.70
2018-02-22T02:45:45.610Z,16.70
2018-02-22T02:46:50.517Z,16.70
2018-02-22T02:47:55.544Z,16.70
2018-02-22T02:49:00.460Z,16.70
2018-02-22T02:50:05.418Z,16.70
2018-02-22T02:51:10.371Z,16.70
2018-02-22T02:52:15.149Z,16.70
2018-02-22T02:53:20.065Z,16.70
2018-02-22T02:54:24.733Z,16.70
2018-02-22T02:55:29.426Z,16.70
2018-02-22T02:56:34.196Z,16.70
2018-02-22T02:57:38.962Z,16.70
2018-02-22T02:58:43.844Z,16.70
2018-02-22T02:59:48.678Z,16.70
2018-02-22T03:00:53.572Z,16.70
2018-02-22T03:01:58.552Z,16.70
2018-02-22T03:03:03.304Z,16.70
2018-02-22T03:04:08.259Z,16.70
2018-02-22T03:05:13.017Z,16.70
2018-02-22T03:06:17.765Z,16.70
2018-02-22T03:07:22.599Z,16.70
2018-02-22T03:08:27.536Z,16.70
2018-02-22T03:09:32.417Z,16.70
2018-02-22T03:10:37.157Z,16.70
2018-02-22T03:11:42.064Z,16.70
2018-02-22T03:12:46.778Z,16.70
2018-02-22T03:13:51.500Z,16.70
2018-02-22T03:14:56.481Z,16.70
2018-02-22T03:16:01.317Z,16.70
2018-02-22T03:17:06.021Z,16.70
2018-02-22T03:18:10.975Z,16.70
2018-02-22T03:19:15.888Z,16.70
2018-02-22T03:20:20.610Z,16.70
2018-02-22T03:21:25.436Z,16.70
2018-02-22T03:22:30.163Z,16.70
2018-02-22T03:23:34.917Z,16.70
2018-02-22T03:24:39.808Z,16.70
2018-02-22T03:25:44.694Z,16.70
2018-02-22T03:26:49.701Z,16.70
2018-02-22T03:27:54.579Z,16.60
2018-02-22T03:28:59.313Z,16.60
2018-02-22T03:30:04.059Z,16.70
2018-02-22T03:31:08.895Z,16.70
2018-02-22T03:32:13.929Z,16.70
2018-02-22T03:33:18.782Z,16.60
2018-02-22T03:34:23.493Z,16.70
2018-02-22T03:35:28.231Z,16.60
2018-02-22T03:36:33.018Z,16.60
2018-02-22T03:37:37.925Z,16.60
2018-02-22T03:38:42.893Z,16.60
2018-02-22T03:39:47.647Z,16.70
2018-02-22T03:40:52.367Z,16.60
2018-02-22T03:41:57.057Z,16.70
2018-02-22T03:43:01.997Z,16.60
2018-02-22T03:44:06.754Z,16.70
2018-02-22T03:45:11.694Z,16.70
2018-02-22T03:46:16.609Z,16.60
2018-02-22T03:47:21.403Z,16.60
2018-02-22T03:48:26.140Z,16.60
2018-02-22T03:49:30.910Z,16.70
2018-02-22T03:50:35.811Z,16.70
2018-02-22T03:51:40.639Z,16.70
2018-02-22T03:52:45.501Z,16.60
2018-02-22T03:53:50.304Z,16.60
2018-02-22T03:54:55.010Z,16.70
2018-02-22T03:55:59.917Z,16.70
2018-02-22T03:57:04.683Z,16.70
2018-02-22T03:58:09.572Z,16.60
2018-02-22T03:59:14.436Z,16.70
2018-02-22T04:00:19.182Z,16.60
2018-02-22T04:01:23.971Z,16.60
2018-02-22T04:02:28.762Z,16.60
2018-02-22T04:03:33.514Z,16.70
2018-02-22T04:04:38.424Z,16.70
2018-02-22T04:05:43.222Z,16.70
2018-02-22T04:06:48.149Z,16.70
2018-02-22T04:07:52.874Z,16.70
2018-02-22T04:08:57.635Z,16.70
2018-02-22T04:10:02.590Z,16.60
2018-02-22T04:11:07.542Z,16.70
2018-02-22T04:12:12.338Z,16.60
2018-02-22T04:13:17.092Z,16.60
2018-02-22T04:14:21.911Z,16.70
2018-02-22T04:15:26.965Z,16.60
2018-02-22T04:16:31.769Z,16.70
2018-02-22T04:17:36.677Z,16.70
2018-02-22T04:18:41.445Z,16.70
2018-02-22T04:19:46.283Z,16.70
2018-02-22T04:20:51.075Z,16.60
2018-02-22T04:21:55.896Z,16.60
2018-02-22T04:23:00.702Z,16.60
2018-02-22T04:24:05.574Z,16.60
2018-02-22T04:25:10.398Z,16.60
2018-02-22T04:26:15.246Z,16.60
2018-02-22T04:27:20.155Z,16.60
2018-02-22T04:28:24.866Z,16.60
2018-02-22T04:29:29.764Z,16.60
2018-02-22T04:30:34.465Z,16.60
2018-02-22T04:31:39.386Z,16.60
2018-02-22T04:32:44.310Z,16.60
2018-02-22T04:33:49.276Z,16.60
2018-02-22T04:34:54.005Z,16.60
2018-02-22T04:35:58.804Z,16.60
2018-02-22T04:37:03.580Z,16.60
2018-02-22T04:38:08.408Z,16.60
2018-02-22T04:39:13.346Z,16.60
2018-02-22T04:40:18.295Z,16.60
2018-02-22T04:41:23.177Z,16.60
2018-02-22T04:42:27.891Z,16.60
2018-02-22T04:43:32.828Z,16.60
2018-02-22T04:44:37.744Z,16.60
2018-02-22T04:45:42.504Z,16.60
2018-02-22T04:46:47.417Z,16.60
2018-02-22T04:47:52.322Z,16.60
2018-02-22T04:48:57.112Z,16.60
2018-02-22T04:50:01.929Z,16.60
2018-02-22T04:51:07.048Z,16.60
2018-02-22T04:52:11.773Z,16.60
2018-02-22T04:53:17.428Z,16.60
2018-02-22T04:54:22.308Z,16.60
2018-02-22T04:55:27.043Z,16.60
2018-02-22T04:56:31.873Z,16.60
2018-02-22T04:57:36.774Z,16.60
2018-02-22T04:58:41.555Z,16.60
2018-02-22T04:59:46.549Z,16.60
2018-02-22T05:00:51.456Z,16.60
2018-02-22T05:01:56.387Z,16.60
2018-02-22T05:03:01.923Z,16.60
2018-02-22T05:04:06.865Z,16.60
2018-02-22T05:05:11.576Z,16.50
2018-02-22T05:06:16.422Z,16.50
2018-02-22T05:07:21.145Z,16.60
2018-02-22T05:08:26.036Z,16.60
2018-02-22T05:09:30.773Z,16.60
2018-02-22T05:10:35.508Z,16.50
2018-02-22T05:11:40.414Z,16.50
2018-02-22T05:12:45.108Z,16.60
2018-02-22T05:13:49.952Z,16.60
2018-02-22T05:14:54.780Z,16.60
2018-02-22T05:15:59.665Z,16.60
2018-02-22T05:17:04.603Z,16.60
2018-02-22T05:18:09.525Z,16.60
2018-02-22T05:19:14.279Z,16.60
2018-02-22T05:20:19.647Z,16.50
2018-02-22T05:21:24.494Z,16.50
2018-02-22T05:22:29.173Z,16.60
2018-02-22T05:23:34.171Z,16.60
2018-02-22T05:24:39.099Z,16.60
2018-02-22T05:25:44.194Z,16.60
2018-02-22T05:26:49.141Z,16.60
2018-02-22T05:27:53.870Z,16.60
2018-02-22T05:28:58.568Z,16.60
2018-02-22T05:30:03.484Z,16.60
2018-02-22T05:31:08.265Z,16.60
2018-02-22T05:32:13.225Z,16.50
2018-02-22T05:33:18.030Z,16.60
2018-02-22T05:34:22.854Z,16.60
2018-02-22T05:35:27.520Z,16.60
2018-02-22T05:36:32.449Z,16.50
2018-02-22T05:37:37.361Z,16.60
2018-02-22T05:38:42.233Z,16.60
2018-02-22T05:39:47.109Z,16.50
2018-02-22T05:40:51.865Z,16.50
2018-02-22T05:41:56.738Z,16.50
2018-02-22T05:43:01.541Z,16.50
2018-02-22T05:44:06.257Z,16.50
2018-02-22T05:45:10.980Z,16.50
2018-02-22T05:46:15.944Z,16.50
2018-02-22T05:47:20.624Z,16.50
2018-02-22T05:48:25.312Z,16.50
2018-02-22T05:49:30.268Z,16.30
2018-02-22T05:50:35.021Z,16.10
2018-02-22T05:51:40.099Z,15.70
2018-02-22T05:52:45.004Z,15.50
2018-02-22T05:53:49.946Z,15.20
2018-02-22T05:55:58.523Z,14.80
2018-02-22T05:57:03.242Z,14.70
2018-02-22T05:58:08.043Z,14.50
2018-02-22T05:59:12.810Z,14.40
2018-02-22T06:00:17.853Z,14.30
2018-02-22T06:01:22.818Z,14.40
2018-02-22T06:02:27.582Z,14.50
2018-02-22T06:03:32.501Z,14.70
2018-02-22T06:04:37.374Z,14.90
2018-02-22T06:05:42.303Z,15.10
2018-02-22T06:06:47.111Z,15.30
2018-02-22T06:07:51.824Z,15.50
2018-02-22T06:08:56.614Z,15.70
2018-02-22T06:10:01.577Z,15.90
2018-02-22T06:11:06.510Z,16.00
2018-02-22T06:12:11.282Z,16.20
2018-02-22T06:13:16.107Z,16.30
2018-02-22T06:14:20.977Z,16.50
2018-02-22T06:15:26.077Z,16.60
2018-02-22T06:16:30.988Z,16.80
2018-02-22T06:17:35.847Z,16.90
2018-02-22T06:18:40.887Z,17.10
2018-02-22T06:19:45.709Z,17.30
2018-02-22T06:20:50.659Z,17.40
2018-02-22T06:21:55.617Z,17.50
2018-02-22T06:23:00.536Z,17.60
2018-02-22T06:24:05.266Z,17.70
2018-02-22T06:25:10.182Z,17.80
2018-02-22T06:26:14.966Z,17.90
2018-02-22T06:27:19.683Z,18.00
2018-02-22T06:28:24.519Z,18.10
2018-02-22T06:29:29.399Z,18.20
2018-02-22T06:30:34.087Z,18.30
2018-02-22T06:31:38.894Z,18.30
2018-02-22T06:32:43.628Z,18.40
2018-02-22T06:33:48.319Z,18.40
2018-02-22T06:34:53.027Z,18.30
2018-02-22T06:35:57.783Z,18.20
2018-02-22T06:37:02.645Z,18.20
2018-02-22T06:38:07.522Z,18.20
2018-02-22T06:39:12.694Z,18.30
2018-02-22T06:40:17.513Z,18.30
2018-02-22T06:41:22.212Z,18.30
2018-02-22T06:42:27.203Z,18.30
2018-02-22T06:43:31.932Z,18.30
2018-02-22T06:44:36.678Z,18.40
2018-02-22T06:45:41.568Z,18.40
2018-02-22T06:46:46.410Z,18.50
2018-02-22T06:47:51.237Z,18.50
2018-02-22T06:48:55.997Z,18.50
2018-02-22T06:50:03.971Z,18.50
2018-02-22T06:51:08.902Z,18.40
2018-02-22T06:52:13.804Z,18.40
2018-02-22T06:53:18.656Z,18.40
2018-02-22T06:54:23.375Z,18.40
2018-02-22T06:55:28.316Z,18.40
2018-02-22T06:56:33.186Z,18.40
2018-02-22T06:57:38.105Z,18.40
2018-02-22T06:58:42.843Z,18.40
2018-02-22T06:59:47.803Z,18.40
2018-02-22T07:00:52.761Z,18.40
2018-02-22T07:01:57.727Z,18.40
2018-02-22T07:03:02.492Z,18.40
2018-02-22T07:04:07.466Z,18.50
2018-02-22T07:05:12.437Z,18.40
2018-02-22T07:06:17.359Z,18.40
2018-02-22T07:07:22.352Z,18.40
2018-02-22T07:08:27.158Z,18.40
2018-02-22T07:09:32.064Z,18.50
2018-02-22T07:10:37.002Z,18.40
2018-02-22T07:11:43.106Z,18.50
2018-02-22T07:12:48.220Z,18.50
2018-02-22T07:13:52.990Z,18.50
2018-02-22T07:14:57.885Z,18.50
2018-02-22T07:16:02.826Z,18.50
2018-02-22T07:17:07.558Z,18.50
2018-02-22T07:18:12.419Z,18.60
2018-02-22T07:19:17.183Z,18.60
2018-02-22T07:20:22.078Z,18.60
2018-02-22T07:21:26.801Z,18.60
2018-02-22T07:22:31.520Z,18.60
2018-02-22T07:23:36.312Z,18.60
2018-02-22T07:24:41.335Z,18.60
2018-02-22T07:25:46.215Z,18.60
2018-02-22T07:26:51.157Z,18.60
2018-02-22T07:27:55.921Z,18.60
2018-02-22T07:29:00.692Z,18.60
2018-02-22T07:30:05.582Z,18.60
2018-02-22T07:31:10.396Z,18.60
2018-02-22T07:32:15.254Z,18.60
2018-02-22T07:33:20.086Z,18.70
2018-02-22T07:34:25.013Z,18.60
2018-02-22T07:35:29.711Z,18.60
2018-02-22T07:36:34.715Z,18.60
2018-02-22T07:37:39.478Z,18.60
2018-02-22T07:38:44.400Z,18.60
2018-02-22T07:39:49.340Z,18.60
2018-02-22T07:40:54.271Z,18.60
2018-02-22T07:41:59.040Z,18.60
2018-02-22T07:43:04.231Z,18.60
2018-02-22T07:44:09.427Z,18.60
2018-02-22T07:45:14.177Z,18.50
2018-02-22T07:46:19.031Z,18.50
2018-02-22T07:47:23.801Z,18.50
2018-02-22T07:48:28.673Z,18.50
2018-02-22T07:49:33.533Z,18.50
2018-02-22T07:50:38.440Z,18.50
2018-02-22T07:51:43.278Z,18.40
2018-02-22T07:52:48.034Z,18.40
2018-02-22T07:53:52.815Z,18.40
2018-02-22T07:54:57.716Z,18.40
2018-02-22T07:56:02.455Z,18.40
2018-02-22T07:57:07.164Z,18.40
2018-02-22T07:58:11.910Z,18.30
2018-02-22T07:59:16.840Z,18.30
2018-02-22T08:00:21.704Z,18.30
2018-02-22T08:01:26.408Z,18.30
2018-02-22T08:02:31.128Z,18.30
2018-02-22T08:03:35.843Z,18.30
2018-02-22T08:04:40.694Z,18.30
2018-02-22T08:05:45.422Z,18.30
2018-02-22T08:06:50.319Z,18.30
2018-02-22T08:07:55.224Z,18.30
2018-02-22T08:08:59.969Z,18.30
2018-02-22T08:10:04.917Z,18.30
2018-02-22T08:11:09.697Z,18.30
2018-02-22T08:12:14.534Z,18.30
2018-02-22T08:13:19.280Z,18.30
2018-02-22T08:14:24.084Z,18.30
2018-02-22T08:15:29.030Z,18.30
2018-02-22T08:16:33.765Z,18.30
2018-02-22T08:17:38.614Z,18.20
2018-02-22T08:18:43.484Z,18.20
2018-02-22T08:19:48.440Z,18.20
2018-02-22T08:20:53.359Z,18.20
2018-02-22T08:21:58.064Z,18.20
2018-02-22T08:23:03.446Z,18.20
2018-02-22T08:24:08.306Z,18.20
2018-02-22T08:25:13.272Z,18.30
2018-02-22T08:26:18.548Z,18.30
2018-02-22T08:27:23.833Z,18.30
2018-02-22T08:28:28.710Z,18.20
2018-02-22T08:29:33.490Z,18.20
2018-02-22T08:30:38.379Z,18.20
2018-02-22T08:31:43.192Z,18.20
2018-02-22T08:32:47.930Z,18.10
2018-02-22T08:33:52.747Z,18.10
2018-02-22T08:34:57.503Z,18.10
2018-02-22T08:36:02.740Z,18.10
2018-02-22T08:37:07.568Z,18.10
2018-02-22T08:38:12.361Z,18.10
2018-02-22T08:39:17.317Z,18.20
2018-02-22T08:40:22.192Z,18.20
2018-02-22T08:41:27.077Z,18.20
2018-02-22T08:42:32.048Z,18.20
2018-02-22T08:43:37.040Z,18.20
2018-02-22T08:44:42.043Z,18.10
2018-02-22T08:45:46.814Z,18.20
2018-02-22T08:46:51.739Z,18.20
2018-02-22T08:47:56.496Z,18.10
2018-02-22T08:49:01.411Z,18.10
2018-02-22T08:50:06.244Z,18.10
2018-02-22T08:51:11.060Z,18.10
2018-02-22T08:52:15.976Z,18.10
2018-02-22T08:53:20.953Z,18.00
2018-02-22T08:54:25.947Z,18.00
2018-02-22T08:55:31.038Z,18.00
2018-02-22T08:56:35.998Z,18.00
2018-02-22T08:57:40.906Z,18.00
2018-02-22T08:58:45.662Z,18.10
2018-02-22T08:59:50.555Z,18.00
2018-02-22T09:00:55.418Z,18.10
2018-02-22T09:02:00.248Z,18.10
2018-02-22T09:03:05.034Z,18.10
2018-02-22T09:04:09.937Z,18.10
2018-02-22T09:05:14.834Z,18.10
2018-02-22T09:06:19.817Z,18.10
2018-02-22T09:07:24.749Z,18.20
2018-02-22T09:08:30.167Z,18.20
2018-02-22T09:09:35.045Z,18.20
2018-02-22T09:10:39.809Z,18.20
2018-02-22T09:11:44.532Z,18.30
2018-02-22T09:12:49.477Z,18.30
2018-02-22T09:13:54.382Z,18.30
2018-02-22T09:14:59.146Z,18.30
2018-02-22T09:16:03.977Z,18.30
2018-02-22T09:17:08.691Z,18.30
2018-02-22T09:18:13.450Z,18.30
2018-02-22T09:19:18.379Z,18.30
2018-02-22T09:20:23.253Z,18.30
2018-02-22T09:21:27.990Z,18.30
2018-02-22T09:22:32.733Z,18.40
2018-02-22T09:23:37.480Z,18.40
2018-02-22T09:24:42.254Z,18.40
2018-02-22T09:25:47.260Z,18.40
2018-02-22T09:26:52.023Z,18.30
2018-02-22T09:27:57.023Z,18.40
2018-02-22T09:29:01.760Z,18.30
2018-02-22T09:30:06.862Z,18.30
2018-02-22T09:31:11.693Z,18.30
2018-02-22T09:32:16.631Z,18.40
2018-02-22T09:33:21.529Z,18.40
2018-02-22T09:34:26.327Z,18.40
2018-02-22T09:35:31.074Z,18.40
2018-02-22T09:36:35.944Z,18.40
2018-02-22T09:37:40.804Z,18.40
2018-02-22T09:38:45.566Z,18.40
2018-02-22T09:39:50.504Z,18.40
2018-02-22T09:40:55.380Z,18.30
2018-02-22T09:42:00.318Z,18.30
2018-02-22T09:43:05.018Z,18.30
2018-02-22T09:44:09.908Z,18.30
2018-02-22T09:45:14.657Z,18.30
2018-02-22T09:46:19.534Z,18.30
2018-02-22T09:47:24.447Z,18.30
2018-02-22T09:48:29.172Z,18.30
2018-02-22T09:49:34.087Z,18.30
2018-02-22T09:50:38.802Z,18.30
2018-02-22T09:51:43.619Z,18.30
2018-02-22T09:52:48.531Z,18.30
2018-02-22T09:53:53.440Z,18.30
2018-02-22T09:54:58.164Z,18.30
2018-02-22T09:56:02.989Z,18.30
2018-02-22T09:57:07.950Z,18.30
2018-02-22T09:58:13.550Z,18.20
2018-02-22T09:59:18.744Z,18.20
2018-02-22T10:00:23.589Z,18.10
2018-02-22T10:01:28.567Z,18.10
2018-02-22T10:02:33.480Z,18.10
2018-02-22T10:03:38.264Z,18.10
2018-02-22T10:04:42.974Z,18.10
2018-02-22T10:05:47.902Z,18.10
2018-02-22T10:06:52.729Z,18.10
2018-02-22T10:08:00.372Z,18.20
2018-02-22T10:09:05.297Z,18.20
2018-02-22T10:10:10.249Z,18.20
2018-02-22T10:11:15.158Z,18.30
2018-02-22T10:12:19.871Z,18.30
2018-02-22T10:13:24.616Z,18.30
2018-02-22T10:14:29.531Z,18.40
2018-02-22T10:15:34.410Z,18.40
2018-02-22T10:16:39.299Z,18.40
2018-02-22T10:17:44.070Z,18.40
2018-02-22T10:18:48.990Z,18.50
2018-02-22T10:19:54.013Z,18.50
2018-02-22T10:20:58.763Z,18.50
2018-02-22T10:22:03.645Z,18.50
2018-02-22T10:23:08.463Z,18.50
2018-02-22T10:24:13.464Z,18.50
2018-02-22T10:25:18.217Z,18.60
2018-02-22T10:26:22.936Z,18.60
2018-02-22T10:27:27.878Z,18.60
2018-02-22T10:28:32.811Z,18.60
2018-02-22T10:29:37.566Z,18.60
2018-02-22T10:30:42.302Z,18.60
2018-02-22T10:31:47.197Z,18.60
2018-02-22T10:32:51.943Z,18.60
2018-02-22T10:33:56.778Z,18.60
2018-02-22T10:35:01.523Z,18.60
2018-02-22T10:36:06.310Z,18.60
2018-02-22T10:37:11.258Z,18.60
2018-02-22T10:38:16.209Z,18.50
2018-02-22T10:39:21.107Z,18.50
2018-02-22T10:40:25.918Z,18.50
2018-02-22T10:41:30.849Z,18.50
2018-02-22T10:42:35.833Z,18.50
2018-02-22T10:43:40.644Z,18.50
2018-02-22T10:44:45.440Z,18.50
2018-02-22T10:45:50.198Z,18.50
2018-02-22T10:46:54.944Z,18.50
2018-02-22T10:47:59.909Z,18.50
2018-02-22T10:49:04.728Z,18.50
2018-02-22T10:50:09.524Z,18.50
2018-02-22T10:51:14.467Z,18.50
2018-02-22T10:52:19.168Z,18.50
2018-02-22T10:53:24.074Z,18.50
2018-02-22T10:54:28.781Z,18.40
2018-02-22T10:55:33.624Z,18.10
2018-02-22T10:56:38.639Z,17.80
2018-02-22T10:57:43.342Z,17.50
2018-02-22T10:58:48.219Z,17.30
2018-02-22T10:59:53.111Z,17.10
2018-02-22T11:00:57.906Z,16.80
2018-02-22T11:02:02.712Z,16.70
2018-02-22T11:03:07.445Z,16.50
2018-02-22T11:04:12.382Z,16.40
2018-02-22T11:05:17.282Z,16.40
2018-02-22T11:06:22.016Z,16.50
2018-02-22T11:07:26.733Z,16.60
2018-02-22T11:08:31.639Z,16.70
2018-02-22T11:09:36.538Z,16.80
2018-02-22T11:10:41.294Z,17.00
2018-02-22T11:11:46.045Z,17.10
2018-02-22T11:12:50.776Z,17.30
2018-02-22T11:13:55.522Z,17.40
2018-02-22T11:15:00.416Z,17.40
2018-02-22T11:16:05.407Z,17.60
2018-02-22T11:17:10.346Z,17.60
2018-02-22T11:18:15.087Z,17.70
2018-02-22T11:19:19.792Z,17.80
2018-02-22T11:20:24.572Z,17.90
2018-02-22T11:21:29.566Z,17.90
2018-02-22T11:22:34.236Z,18.00
2018-02-22T11:23:39.027Z,18.00
2018-02-22T11:24:43.747Z,18.00
2018-02-22T11:25:48.537Z,18.00
2018-02-22T11:26:53.363Z,18.10
2018-02-22T11:27:58.209Z,18.10
2018-02-22T11:29:03.039Z,18.20
2018-02-22T11:30:07.849Z,18.20
2018-02-22T11:31:12.699Z,18.30
2018-02-22T11:32:17.489Z,18.30
2018-02-22T11:33:22.349Z,18.30
2018-02-22T11:34:27.419Z,18.30
2018-02-22T11:35:32.547Z,18.40
2018-02-22T11:36:37.448Z,18.40
2018-02-22T11:37:42.278Z,18.40
2018-02-22T11:38:47.399Z,18.40
2018-02-22T11:39:52.368Z,18.40
2018-02-22T11:40:57.501Z,18.40
2018-02-22T11:42:02.461Z,18.40
2018-02-22T11:43:07.565Z,18.40
2018-02-22T11:44:12.642Z,18.40
2018-02-22T11:45:17.364Z,18.30
2018-02-22T11:46:22.231Z,18.30
2018-02-22T11:47:26.959Z,18.30
2018-02-22T11:48:35.089Z,18.30
2018-02-22T11:49:39.939Z,18.30
2018-02-22T11:50:44.698Z,18.30
2018-02-22T11:51:49.738Z,18.20
2018-02-22T11:52:54.781Z,18.20
2018-02-22T11:53:59.657Z,18.20
2018-02-22T11:55:04.414Z,18.10
2018-02-22T11:56:09.274Z,18.10
2018-02-22T11:57:14.118Z,18.10
2018-02-22T11:58:19.162Z,18.10
2018-02-22T11:59:24.169Z,18.10
2018-02-22T12:00:29.069Z,18.10
2018-02-22T12:01:33.768Z,18.10
2018-02-22T12:02:38.554Z,18.10
2018-02-22T12:03:43.461Z,18.00
2018-02-22T12:04:48.206Z,18.00
2018-02-22T12:05:53.198Z,18.00
2018-02-22T12:06:57.981Z,18.00
2018-02-22T12:08:02.890Z,18.00
2018-02-22T12:09:07.828Z,18.00
2018-02-22T12:10:12.586Z,18.00
2018-02-22T12:11:17.532Z,18.00
2018-02-22T12:12:22.238Z,18.00
2018-02-22T12:13:27.063Z,17.80
2018-02-22T12:14:31.837Z,17.70
2018-02-22T12:15:36.674Z,17.50
2018-02-22T12:16:41.566Z,17.50
2018-02-22T12:17:46.354Z,17.50
2018-02-22T12:18:51.217Z,17.60
2018-02-22T12:19:55.962Z,17.70
2018-02-22T12:21:00.768Z,17.70
2018-02-22T12:22:05.523Z,17.70
2018-02-22T12:23:10.464Z,17.70
2018-02-22T12:24:15.286Z,17.80
2018-02-22T12:25:20.002Z,17.80
2018-02-22T12:26:24.715Z,17.80
2018-02-22T12:27:29.449Z,17.80
2018-02-22T12:28:34.374Z,17.80
2018-02-22T12:29:39.324Z,17.80
2018-02-22T12:30:44.178Z,17.80
2018-02-22T12:31:48.976Z,17.80
2018-02-22T12:32:53.860Z,17.80
2018-02-22T12:33:58.610Z,17.90
2018-02-22T12:35:03.561Z,17.90
2018-02-22T12:36:08.640Z,17.90
2018-02-22T12:37:13.542Z,17.90
2018-02-22T12:38:18.305Z,18.00
2018-02-22T12:39:23.036Z,18.00
2018-02-22T12:40:28.019Z,18.20
2018-02-22T12:41:32.763Z,18.30
2018-02-22T12:42:37.776Z,18.60
2018-02-22T12:43:42.737Z,18.80
2018-02-22T12:44:47.647Z,18.70
2018-02-22T12:45:52.625Z,18.60
2018-02-22T12:46:57.590Z,18.50
2018-02-22T12:48:02.437Z,18.40
2018-02-22T12:49:07.347Z,18.30
2018-02-22T12:50:12.230Z,18.30
2018-02-22T12:51:17.057Z,18.20
2018-02-22T12:52:21.893Z,18.10
2018-02-22T12:53:26.785Z,18.10
2018-02-22T12:54:31.750Z,18.00
2018-02-22T12:55:36.731Z,18.00
2018-02-22T12:56:41.609Z,18.00
2018-02-22T12:57:46.402Z,18.00
2018-02-22T12:58:51.160Z,17.90
2018-02-22T12:59:55.907Z,17.90
2018-02-22T13:01:00.946Z,17.90
2018-02-22T13:02:05.914Z,17.90
2018-02-22T13:03:10.896Z,17.80
2018-02-22T13:04:15.609Z,17.80
2018-02-22T13:05:20.452Z,17.80
2018-02-22T13:06:25.190Z,17.80
2018-02-22T13:07:29.978Z,17.80
2018-02-22T13:08:35.098Z,17.80
2018-02-22T13:09:40.107Z,17.70
2018-02-22T13:10:45.059Z,17.70
2018-02-22T13:11:49.958Z,17.70
2018-02-22T13:12:54.874Z,17.70
2018-02-22T13:13:59.778Z,17.70
2018-02-22T13:15:04.552Z,17.70
2018-02-22T13:16:09.356Z,17.70
2018-02-22T13:17:14.250Z,17.70
2018-02-22T13:18:19.052Z,17.70
2018-02-22T13:19:23.933Z,17.70
2018-02-22T13:20:28.681Z,17.60
2018-02-22T13:21:33.450Z,17.60
2018-02-22T13:22:38.408Z,17.60
2018-02-22T13:23:43.227Z,17.60
2018-02-22T13:24:48.229Z,17.60
2018-02-22T13:25:53.148Z,17.50
2018-02-22T13:26:58.053Z,17.40
2018-02-22T13:28:02.915Z,17.30
2018-02-22T13:29:07.858Z,17.30
2018-02-22T13:30:12.916Z,17.30
2018-02-22T13:31:17.858Z,17.30
2018-02-22T13:32:22.698Z,17.30
2018-02-22T13:33:27.676Z,17.30
2018-02-22T13:34:32.628Z,17.40
2018-02-22T13:35:37.483Z,17.40
2018-02-22T13:36:42.496Z,17.50
2018-02-22T13:37:47.845Z,17.50
2018-02-22T13:38:52.760Z,17.50
2018-02-22T13:39:57.709Z,17.60
2018-02-22T13:41:02.441Z,17.60
2018-02-22T13:42:07.493Z,17.60
2018-02-22T13:43:12.298Z,17.70
2018-02-22T13:44:16.973Z,17.70
2018-02-22T13:45:21.868Z,17.80
2018-02-22T13:46:26.582Z,17.80
2018-02-22T13:47:31.364Z,17.80
2018-02-22T13:48:36.300Z,17.80
2018-02-22T13:49:41.283Z,17.80
2018-02-22T13:50:46.290Z,17.80
2018-02-22T13:51:51.222Z,17.80
2018-02-22T13:52:56.037Z,17.80
2018-02-22T13:54:00.795Z,17.80
2018-02-22T13:55:05.742Z,17.80
2018-02-22T13:56:10.560Z,17.90